Terminal Aerodrome Forecast
Issued by NWS Twin Cities, MN

Home | Current Version | Previous Version | Text Only | Print | Product List | Glossary Off
Versions: 1 2 3 4 5 6 7 8 9 10 11 12 13 14 15 16 17 18 19 20 21 22 23 24 25 26 27

543
FTUS43 KMPX 180535
TAFMSP
TAF
KMSP 180535Z 1806/1912 13007KT P6SM VCSH SCT025 BKN070
     FM180800 17009KT P6SM SCT060
     FM181900 06006KT P6SM -SHRA VCTS SCT030 BKN050CB
      TEMPO 1820/1824 3SM +TSRA BR SCT015 OVC025CB
     FM190200 05006KT P6SM SCT045=

USA.gov is the U.S. government's official web portal to all federal, state and local government web resources and services.